sensor_id;sensor_type;location;lat;lon;timestamp;P1;durP1;ratioP1;P2;durP2;ratioP2
60233;SDS011;49514;43.538;-5.708;2023-11-21T00:01:15;9.63;;;1.90;;
60233;SDS011;49514;43.538;-5.708;2023-11-21T00:03:42;11.15;;;1.80;;
60233;SDS011;49514;43.538;-5.708;2023-11-21T00:06:10;9.15;;;1.73;;
60233;SDS011;49514;43.538;-5.708;2023-11-21T00:08:36;10.35;;;2.03;;
60233;SDS011;49514;43.538;-5.708;2023-11-21T00:11:03;9.85;;;2.25;;
60233;SDS011;49514;43.538;-5.708;2023-11-21T00:13:32;10.88;;;2.45;;
60233;SDS011;49514;43.538;-5.708;2023-11-21T00:15:58;11.38;;;1.88;;
60233;SDS011;49514;43.538;-5.708;2023-11-21T00:18:25;10.93;;;1.98;;
60233;SDS011;49514;43.538;-5.708;2023-11-21T00:20:52;13.45;;;1.88;;
60233;SDS011;49514;43.538;-5.708;2023-11-21T00:23:19;11.02;;;1.75;;
60233;SDS011;49514;43.538;-5.708;2023-11-21T00:25:45;7.85;;;1.40;;
60233;SDS011;49514;43.538;-5.708;2023-11-21T00:28:12;7.75;;;1.30;;
60233;SDS011;49514;43.538;-5.708;2023-11-21T00:30:39;8.00;;;1.60;;
60233;SDS011;49514;43.538;-5.708;2023-11-21T00:33:06;6.70;;;1.25;;
60233;SDS011;49514;43.538;-5.708;2023-11-21T00:35:33;8.35;;;1.58;;
60233;SDS011;49514;43.538;-5.708;2023-11-21T00:37:59;6.80;;;1.58;;
60233;SDS011;49514;43.538;-5.708;2023-11-21T00:40:26;8.35;;;1.50;;
60233;SDS011;49514;43.538;-5.708;2023-11-21T00:42:52;5.93;;;1.77;;
60233;SDS011;49514;43.538;-5.708;2023-11-21T00:45:19;10.07;;;1.70;;
60233;SDS011;49514;43.538;-5.708;2023-11-21T00:47:46;9.85;;;1.98;;
60233;SDS011;49514;43.538;-5.708;2023-11-21T00:50:12;9.30;;;2.17;;
60233;SDS011;49514;43.538;-5.708;2023-11-21T00:52:39;9.20;;;1.85;;
60233;SDS011;49514;43.538;-5.708;2023-11-21T00:55:06;9.50;;;2.35;;
60233;SDS011;49514;43.538;-5.708;2023-11-21T00:57:34;11.40;;;2.28;;
60233;SDS011;49514;43.538;-5.708;2023-11-21T01:00:01;11.65;;;2.00;;
60233;SDS011;49514;43.538;-5.708;2023-11-21T01:02:32;15.52;;;4.95;;
60233;SDS011;49514;43.538;-5.708;2023-11-21T01:05:01;14.00;;;3.70;;
60233;SDS011;49514;43.538;-5.708;2023-11-21T01:07:28;17.98;;;5.55;;
60233;SDS011;49514;43.538;-5.708;2023-11-21T01:09:55;27.70;;;9.48;;
60233;SDS011;49514;43.538;-5.708;2023-11-21T01:12:22;29.92;;;8.70;;
60233;SDS011;49514;43.538;-5.708;2023-11-21T01:14:50;22.98;;;9.02;;
60233;SDS011;49514;43.538;-5.708;2023-11-21T01:17:18;21.48;;;10.02;;
60233;SDS011;49514;43.538;-5.708;2023-11-21T01:19:44;26.60;;;11.90;;
60233;SDS011;49514;43.538;-5.708;2023-11-21T01:22:12;30.27;;;12.45;;
60233;SDS011;49514;43.538;-5.708;2023-11-21T01:24:38;32.47;;;14.50;;
60233;SDS011;49514;43.538;-5.708;2023-11-21T01:27:05;21.73;;;9.07;;
60233;SDS011;49514;43.538;-5.708;2023-11-21T01:29:32;24.23;;;4.70;;
60233;SDS011;49514;43.538;-5.708;2023-11-21T01:31:58;28.73;;;3.55;;
60233;SDS011;49514;43.538;-5.708;2023-11-21T01:34:25;21.27;;;3.67;;
60233;SDS011;49514;43.538;-5.708;2023-11-21T01:36:51;34.33;;;3.85;;
60233;SDS011;49514;43.538;-5.708;2023-11-21T01:39:18;20.38;;;3.17;;
60233;SDS011;49514;43.538;-5.708;2023-11-21T01:41:49;34.05;;;3.72;;
60233;SDS011;49514;43.538;-5.708;2023-11-21T01:44:18;29.75;;;3.38;;
60233;SDS011;49514;43.538;-5.708;2023-11-21T01:46:45;28.15;;;3.90;;
60233;SDS011;49514;43.538;-5.708;2023-11-21T01:49:13;30.23;;;2.90;;
60233;SDS011;49514;43.538;-5.708;2023-11-21T01:51:42;26.38;;;3.00;;
60233;SDS011;49514;43.538;-5.708;2023-11-21T01:54:17;16.20;;;3.15;;
60233;SDS011;49514;43.538;-5.708;2023-11-21T01:56:46;15.48;;;4.00;;
60233;SDS011;49514;43.538;-5.708;2023-11-21T01:59:14;21.85;;;4.32;;
60233;SDS011;49514;43.538;-5.708;2023-11-21T02:01:44;16.80;;;3.25;;
60233;SDS011;49514;43.538;-5.708;2023-11-21T02:04:13;13.52;;;2.58;;
60233;SDS011;49514;43.538;-5.708;2023-11-21T02:06:40;11.65;;;2.15;;
60233;SDS011;49514;43.538;-5.708;2023-11-21T02:09:06;11.50;;;1.80;;
60233;SDS011;49514;43.538;-5.708;2023-11-21T02:11:34;11.23;;;2.10;;
60233;SDS011;49514;43.538;-5.708;2023-11-21T02:14:01;19.40;;;2.50;;
60233;SDS011;49514;43.538;-5.708;2023-11-21T02:16:29;11.15;;;2.05;;
60233;SDS011;49514;43.538;-5.708;2023-11-21T02:18:57;18.50;;;2.55;;
60233;SDS011;49514;43.538;-5.708;2023-11-21T02:21:24;14.88;;;2.13;;
60233;SDS011;49514;43.538;-5.708;2023-11-21T02:23:51;17.42;;;2.70;;
60233;SDS011;49514;43.538;-5.708;2023-11-21T02:26:18;17.20;;;2.55;;
60233;SDS011;49514;43.538;-5.708;2023-11-21T02:28:46;20.02;;;2.13;;
60233;SDS011;49514;43.538;-5.708;2023-11-21T02:31:13;14.60;;;1.88;;
60233;SDS011;49514;43.538;-5.708;2023-11-21T02:33:40;12.27;;;1.90;;
60233;SDS011;49514;43.538;-5.708;2023-11-21T02:36:07;12.85;;;1.98;;
60233;SDS011;49514;43.538;-5.708;2023-11-21T02:38:34;16.83;;;2.33;;
60233;SDS011;49514;43.538;-5.708;2023-11-21T02:41:01;26.90;;;4.10;;
60233;SDS011;49514;43.538;-5.708;2023-11-21T02:43:27;18.33;;;2.72;;
60233;SDS011;49514;43.538;-5.708;2023-11-21T02:45:54;15.95;;;2.17;;
60233;SDS011;49514;43.538;-5.708;2023-11-21T02:48:20;13.98;;;2.85;;
60233;SDS011;49514;43.538;-5.708;2023-11-21T02:50:49;14.65;;;2.80;;
60233;SDS011;49514;43.538;-5.708;2023-11-21T02:53:16;18.08;;;4.25;;
60233;SDS011;49514;43.538;-5.708;2023-11-21T02:55:42;17.40;;;4.10;;
60233;SDS011;49514;43.538;-5.708;2023-11-21T02:58:09;15.32;;;2.90;;
60233;SDS011;49514;43.538;-5.708;2023-11-21T03:00:36;12.88;;;4.20;;
60233;SDS011;49514;43.538;-5.708;2023-11-21T03:03:02;13.45;;;3.08;;
60233;SDS011;49514;43.538;-5.708;2023-11-21T03:05:30;16.00;;;3.17;;
60233;SDS011;49514;43.538;-5.708;2023-11-21T03:07:56;19.50;;;3.78;;
60233;SDS011;49514;43.538;-5.708;2023-11-21T03:10:26;20.50;;;3.65;;
60233;SDS011;49514;43.538;-5.708;2023-11-21T03:12:53;13.10;;;3.10;;
60233;SDS011;49514;43.538;-5.708;2023-11-21T03:15:19;18.00;;;3.35;;
60233;SDS011;49514;43.538;-5.708;2023-11-21T03:17:46;16.50;;;3.47;;
60233;SDS011;49514;43.538;-5.708;2023-11-21T03:20:14;13.30;;;2.92;;
60233;SDS011;49514;43.538;-5.708;2023-11-21T03:22:42;19.05;;;3.10;;
60233;SDS011;49514;43.538;-5.708;2023-11-21T03:25:08;18.98;;;3.40;;
60233;SDS011;49514;43.538;-5.708;2023-11-21T03:27:38;13.02;;;2.90;;
60233;SDS011;49514;43.538;-5.708;2023-11-21T03:30:05;14.95;;;3.33;;
60233;SDS011;49514;43.538;-5.708;2023-11-21T03:32:34;14.68;;;3.17;;
60233;SDS011;49514;43.538;-5.708;2023-11-21T03:35:01;17.35;;;4.38;;
60233;SDS011;49514;43.538;-5.708;2023-11-21T03:37:29;12.52;;;2.90;;
60233;SDS011;49514;43.538;-5.708;2023-11-21T03:39:56;15.95;;;3.50;;
60233;SDS011;49514;43.538;-5.708;2023-11-21T03:42:22;14.98;;;3.35;;
60233;SDS011;49514;43.538;-5.708;2023-11-21T03:44:51;18.17;;;4.18;;
60233;SDS011;49514;43.538;-5.708;2023-11-21T03:47:18;32.50;;;9.25;;
60233;SDS011;49514;43.538;-5.708;2023-11-21T03:49:45;25.23;;;5.72;;
60233;SDS011;49514;43.538;-5.708;2023-11-21T03:52:15;14.82;;;3.63;;
60233;SDS011;49514;43.538;-5.708;2023-11-21T03:54:42;12.02;;;2.75;;
60233;SDS011;49514;43.538;-5.708;2023-11-21T03:57:09;10.05;;;1.90;;
60233;SDS011;49514;43.538;-5.708;2023-11-21T03:59:36;20.13;;;2.20;;
60233;SDS011;49514;43.538;-5.708;2023-11-21T04:02:05;16.08;;;2.25;;
60233;SDS011;49514;43.538;-5.708;2023-11-21T04:04:34;8.15;;;1.60;;
60233;SDS011;49514;43.538;-5.708;2023-11-21T04:07:01;10.27;;;1.65;;
60233;SDS011;49514;43.538;-5.708;2023-11-21T04:09:27;12.27;;;1.58;;
60233;SDS011;49514;43.538;-5.708;2023-11-21T04:11:54;10.73;;;1.77;;
60233;SDS011;49514;43.538;-5.708;2023-11-21T04:14:22;10.45;;;1.67;;
60233;SDS011;49514;43.538;-5.708;2023-11-21T04:16:48;13.48;;;2.08;;
60233;SDS011;49514;43.538;-5.708;2023-11-21T04:19:15;6.63;;;1.30;;
60233;SDS011;49514;43.538;-5.708;2023-11-21T04:21:42;10.05;;;1.77;;
60233;SDS011;49514;43.538;-5.708;2023-11-21T04:24:09;11.10;;;1.88;;
60233;SDS011;49514;43.538;-5.708;2023-11-21T04:26:36;11.02;;;2.10;;
60233;SDS011;49514;43.538;-5.708;2023-11-21T04:29:03;10.07;;;2.33;;
60233;SDS011;49514;43.538;-5.708;2023-11-21T04:31:30;10.35;;;1.83;;
60233;SDS011;49514;43.538;-5.708;2023-11-21T04:33:57;11.13;;;2.13;;
60233;SDS011;49514;43.538;-5.708;2023-11-21T04:36:24;8.05;;;1.75;;
60233;SDS011;49514;43.538;-5.708;2023-11-21T04:38:51;19.35;;;3.42;;
60233;SDS011;49514;43.538;-5.708;2023-11-21T04:41:17;16.67;;;3.20;;
60233;SDS011;49514;43.538;-5.708;2023-11-21T04:43:44;18.60;;;3.45;;
60233;SDS011;49514;43.538;-5.708;2023-11-21T04:46:10;23.17;;;2.88;;
60233;SDS011;49514;43.538;-5.708;2023-11-21T04:48:37;15.77;;;3.22;;
60233;SDS011;49514;43.538;-5.708;2023-11-21T04:51:04;12.23;;;2.30;;
60233;SDS011;49514;43.538;-5.708;2023-11-21T04:53:30;12.93;;;2.40;;
60233;SDS011;49514;43.538;-5.708;2023-11-21T04:55:57;9.77;;;2.08;;
60233;SDS011;49514;43.538;-5.708;2023-11-21T04:58:24;15.55;;;2.63;;
60233;SDS011;49514;43.538;-5.708;2023-11-21T05:00:51;10.57;;;2.33;;
60233;SDS011;49514;43.538;-5.708;2023-11-21T05:03:17;8.35;;;1.90;;
60233;SDS011;49514;43.538;-5.708;2023-11-21T05:05:44;6.88;;;2.15;;
60233;SDS011;49514;43.538;-5.708;2023-11-21T05:08:10;7.18;;;1.92;;
60233;SDS011;49514;43.538;-5.708;2023-11-21T05:10:37;22.83;;;3.55;;
60233;SDS011;49514;43.538;-5.708;2023-11-21T05:13:05;20.63;;;2.72;;
60233;SDS011;49514;43.538;-5.708;2023-11-21T05:15:35;23.48;;;2.75;;
60233;SDS011;49514;43.538;-5.708;2023-11-21T05:18:03;22.63;;;4.22;;
60233;SDS011;49514;43.538;-5.708;2023-11-21T05:20:31;29.67;;;6.15;;
60233;SDS011;49514;43.538;-5.708;2023-11-21T05:22:59;22.67;;;3.90;;
60233;SDS011;49514;43.538;-5.708;2023-11-21T05:25:25;20.95;;;4.28;;
60233;SDS011;49514;43.538;-5.708;2023-11-21T05:27:52;21.02;;;4.20;;
60233;SDS011;49514;43.538;-5.708;2023-11-21T05:30:20;21.25;;;3.90;;
60233;SDS011;49514;43.538;-5.708;2023-11-21T05:32:47;17.70;;;3.30;;
60233;SDS011;49514;43.538;-5.708;2023-11-21T05:35:15;17.52;;;2.97;;
60233;SDS011;49514;43.538;-5.708;2023-11-21T05:37:42;18.95;;;3.95;;
60233;SDS011;49514;43.538;-5.708;2023-11-21T05:40:09;23.25;;;3.78;;
60233;SDS011;49514;43.538;-5.708;2023-11-21T05:42:36;19.70;;;2.85;;
60233;SDS011;49514;43.538;-5.708;2023-11-21T05:45:04;18.17;;;3.67;;
60233;SDS011;49514;43.538;-5.708;2023-11-21T05:47:41;17.58;;;3.45;;
60233;SDS011;49514;43.538;-5.708;2023-11-21T05:50:09;14.45;;;2.80;;
60233;SDS011;49514;43.538;-5.708;2023-11-21T05:52:38;14.50;;;2.55;;
60233;SDS011;49514;43.538;-5.708;2023-11-21T05:55:07;14.13;;;3.35;;
60233;SDS011;49514;43.538;-5.708;2023-11-21T05:57:35;17.42;;;2.85;;
60233;SDS011;49514;43.538;-5.708;2023-11-21T06:00:11;12.93;;;4.05;;
60233;SDS011;49514;43.538;-5.708;2023-11-21T06:02:52;14.88;;;3.88;;
60233;SDS011;49514;43.538;-5.708;2023-11-21T06:05:19;17.85;;;3.78;;
60233;SDS011;49514;43.538;-5.708;2023-11-21T06:07:49;20.23;;;4.32;;
60233;SDS011;49514;43.538;-5.708;2023-11-21T06:10:16;25.95;;;5.40;;
60233;SDS011;49514;43.538;-5.708;2023-11-21T06:12:45;27.48;;;3.03;;
60233;SDS011;49514;43.538;-5.708;2023-11-21T06:15:12;18.17;;;2.50;;
60233;SDS011;49514;43.538;-5.708;2023-11-21T06:17:42;19.10;;;2.50;;
60233;SDS011;49514;43.538;-5.708;2023-11-21T06:20:10;22.13;;;3.13;;
60233;SDS011;49514;43.538;-5.708;2023-11-21T06:22:40;27.13;;;2.95;;
60233;SDS011;49514;43.538;-5.708;2023-11-21T06:25:08;22.88;;;3.92;;
60233;SDS011;49514;43.538;-5.708;2023-11-21T06:27:39;21.17;;;5.07;;
60233;SDS011;49514;43.538;-5.708;2023-11-21T06:30:08;27.88;;;6.80;;
60233;SDS011;49514;43.538;-5.708;2023-11-21T06:32:35;28.92;;;6.80;;
60233;SDS011;49514;43.538;-5.708;2023-11-21T06:35:02;30.67;;;6.88;;
60233;SDS011;49514;43.538;-5.708;2023-11-21T06:37:31;27.05;;;5.95;;
60233;SDS011;49514;43.538;-5.708;2023-11-21T06:39:58;22.27;;;4.85;;
60233;SDS011;49514;43.538;-5.708;2023-11-21T06:42:26;21.50;;;5.20;;
60233;SDS011;49514;43.538;-5.708;2023-11-21T06:44:53;16.55;;;4.00;;
60233;SDS011;49514;43.538;-5.708;2023-11-21T06:47:23;23.38;;;5.32;;
60233;SDS011;49514;43.538;-5.708;2023-11-21T06:49:53;13.63;;;4.47;;
60233;SDS011;49514;43.538;-5.708;2023-11-21T06:52:20;21.17;;;4.20;;
60233;SDS011;49514;43.538;-5.708;2023-11-21T06:54:47;19.50;;;3.90;;
60233;SDS011;49514;43.538;-5.708;2023-11-21T06:57:15;18.15;;;4.90;;
60233;SDS011;49514;43.538;-5.708;2023-11-21T06:59:42;19.95;;;5.40;;
60233;SDS011;49514;43.538;-5.708;2023-11-21T07:02:08;22.35;;;5.85;;
60233;SDS011;49514;43.538;-5.708;2023-11-21T07:04:35;18.95;;;4.47;;
60233;SDS011;49514;43.538;-5.708;2023-11-21T07:07:03;18.38;;;4.38;;
60233;SDS011;49514;43.538;-5.708;2023-11-21T07:09:30;26.10;;;4.15;;
60233;SDS011;49514;43.538;-5.708;2023-11-21T07:11:57;21.05;;;3.92;;
60233;SDS011;49514;43.538;-5.708;2023-11-21T07:14:24;19.13;;;4.47;;
60233;SDS011;49514;43.538;-5.708;2023-11-21T07:16:51;19.80;;;4.78;;
60233;SDS011;49514;43.538;-5.708;2023-11-21T07:19:18;21.05;;;3.50;;
60233;SDS011;49514;43.538;-5.708;2023-11-21T07:21:45;13.40;;;2.20;;
60233;SDS011;49514;43.538;-5.708;2023-11-21T07:24:16;11.32;;;1.80;;
60233;SDS011;49514;43.538;-5.708;2023-11-21T07:26:43;12.98;;;1.95;;
60233;SDS011;49514;43.538;-5.708;2023-11-21T07:29:09;14.63;;;2.15;;
60233;SDS011;49514;43.538;-5.708;2023-11-21T07:31:37;12.45;;;2.83;;
60233;SDS011;49514;43.538;-5.708;2023-11-21T07:34:06;13.90;;;2.35;;
60233;SDS011;49514;43.538;-5.708;2023-11-21T07:36:34;17.38;;;2.50;;
60233;SDS011;49514;43.538;-5.708;2023-11-21T07:39:00;18.92;;;2.80;;
60233;SDS011;49514;43.538;-5.708;2023-11-21T07:41:28;13.60;;;2.05;;
60233;SDS011;49514;43.538;-5.708;2023-11-21T07:43:55;15.65;;;1.95;;
60233;SDS011;49514;43.538;-5.708;2023-11-21T07:46:22;14.07;;;2.13;;
60233;SDS011;49514;43.538;-5.708;2023-11-21T07:48:49;12.77;;;2.97;;
60233;SDS011;49514;43.538;-5.708;2023-11-21T07:51:18;16.08;;;2.92;;
60233;SDS011;49514;43.538;-5.708;2023-11-21T07:53:44;17.00;;;2.95;;
60233;SDS011;49514;43.538;-5.708;2023-11-21T07:56:11;19.20;;;2.75;;
60233;SDS011;49514;43.538;-5.708;2023-11-21T07:58:38;16.77;;;2.80;;
60233;SDS011;49514;43.538;-5.708;2023-11-21T08:01:05;23.88;;;4.28;;
60233;SDS011;49514;43.538;-5.708;2023-11-21T08:03:32;21.48;;;5.97;;
60233;SDS011;49514;43.538;-5.708;2023-11-21T08:05:59;24.30;;;5.93;;
60233;SDS011;49514;43.538;-5.708;2023-11-21T08:08:25;29.45;;;7.75;;
60233;SDS011;49514;43.538;-5.708;2023-11-21T08:10:54;29.05;;;7.28;;
60233;SDS011;49514;43.538;-5.708;2023-11-21T08:13:27;18.95;;;5.82;;
60233;SDS011;49514;43.538;-5.708;2023-11-21T08:15:56;18.13;;;4.97;;
60233;SDS011;49514;43.538;-5.708;2023-11-21T08:18:33;18.52;;;2.88;;
60233;SDS011;49514;43.538;-5.708;2023-11-21T08:21:00;9.45;;;2.20;;
60233;SDS011;49514;43.538;-5.708;2023-11-21T08:23:26;15.60;;;3.00;;
60233;SDS011;49514;43.538;-5.708;2023-11-21T08:25:54;11.35;;;2.53;;
60233;SDS011;49514;43.538;-5.708;2023-11-21T08:28:21;10.35;;;2.25;;
60233;SDS011;49514;43.538;-5.708;2023-11-21T08:30:52;13.88;;;2.67;;
60233;SDS011;49514;43.538;-5.708;2023-11-21T08:33:20;15.27;;;2.40;;
60233;SDS011;49514;43.538;-5.708;2023-11-21T08:35:46;10.75;;;2.10;;
60233;SDS011;49514;43.538;-5.708;2023-11-21T08:38:13;10.80;;;2.22;;
60233;SDS011;49514;43.538;-5.708;2023-11-21T08:43:06;21.75;;;4.25;;
60233;SDS011;49514;43.538;-5.708;2023-11-21T08:45:34;23.10;;;5.85;;
60233;SDS011;49514;43.538;-5.708;2023-11-21T08:48:01;14.18;;;3.67;;
60233;SDS011;49514;43.538;-5.708;2023-11-21T08:50:28;13.18;;;3.47;;
60233;SDS011;49514;43.538;-5.708;2023-11-21T08:52:55;16.05;;;3.00;;
60233;SDS011;49514;43.538;-5.708;2023-11-21T08:55:22;8.93;;;2.38;;
60233;SDS011;49514;43.538;-5.708;2023-11-21T08:57:48;10.98;;;2.20;;
60233;SDS011;49514;43.538;-5.708;2023-11-21T09:00:15;11.15;;;2.58;;
60233;SDS011;49514;43.538;-5.708;2023-11-21T09:02:43;12.95;;;2.80;;
60233;SDS011;49514;43.538;-5.708;2023-11-21T09:05:11;11.65;;;2.90;;
60233;SDS011;49514;43.538;-5.708;2023-11-21T09:07:42;13.10;;;2.50;;
60233;SDS011;49514;43.538;-5.708;2023-11-21T09:10:12;12.37;;;2.70;;
60233;SDS011;49514;43.538;-5.708;2023-11-21T09:12:39;10.05;;;2.38;;
60233;SDS011;49514;43.538;-5.708;2023-11-21T09:15:06;10.63;;;2.60;;
60233;SDS011;49514;43.538;-5.708;2023-11-21T09:17:35;9.75;;;2.70;;
60233;SDS011;49514;43.538;-5.708;2023-11-21T09:20:02;13.50;;;2.92;;
60233;SDS011;49514;43.538;-5.708;2023-11-21T09:22:32;11.18;;;2.83;;
60233;SDS011;49514;43.538;-5.708;2023-11-21T09:24:58;14.20;;;3.08;;
60233;SDS011;49514;43.538;-5.708;2023-11-21T09:27:25;11.38;;;3.42;;
60233;SDS011;49514;43.538;-5.708;2023-11-21T09:29:52;14.93;;;4.63;;
60233;SDS011;49514;43.538;-5.708;2023-11-21T09:32:19;17.48;;;4.82;;
60233;SDS011;49514;43.538;-5.708;2023-11-21T09:34:50;20.90;;;6.27;;
60233;SDS011;49514;43.538;-5.708;2023-11-21T09:37:17;18.35;;;3.65;;
60233;SDS011;49514;43.538;-5.708;2023-11-21T09:39:44;14.23;;;3.70;;
60233;SDS011;49514;43.538;-5.708;2023-11-21T09:42:59;13.47;;;4.10;;
60233;SDS011;49514;43.538;-5.708;2023-11-21T09:45:26;13.07;;;3.70;;
60233;SDS011;49514;43.538;-5.708;2023-11-21T09:47:52;11.13;;;2.75;;
60233;SDS011;49514;43.538;-5.708;2023-11-21T09:50:21;10.93;;;3.10;;
60233;SDS011;49514;43.538;-5.708;2023-11-21T09:55:43;20.70;;;4.32;;
60233;SDS011;49514;43.538;-5.708;2023-11-21T09:58:11;11.65;;;2.85;;
60233;SDS011;49514;43.538;-5.708;2023-11-21T10:00:41;9.63;;;2.67;;
60233;SDS011;49514;43.538;-5.708;2023-11-21T10:03:09;12.70;;;2.80;;
60233;SDS011;49514;43.538;-5.708;2023-11-21T10:05:36;11.63;;;2.83;;
60233;SDS011;49514;43.538;-5.708;2023-11-21T10:08:09;13.73;;;3.47;;
60233;SDS011;49514;43.538;-5.708;2023-11-21T10:10:37;16.38;;;4.90;;
60233;SDS011;49514;43.538;-5.708;2023-11-21T10:13:08;16.40;;;4.80;;
60233;SDS011;49514;43.538;-5.708;2023-11-21T10:15:38;23.83;;;7.93;;
60233;SDS011;49514;43.538;-5.708;2023-11-21T10:18:07;25.50;;;7.82;;
60233;SDS011;49514;43.538;-5.708;2023-11-21T10:20:35;18.30;;;4.30;;
60233;SDS011;49514;43.538;-5.708;2023-11-21T10:23:04;15.23;;;4.68;;
60233;SDS011;49514;43.538;-5.708;2023-11-21T10:25:33;19.33;;;5.30;;
60233;SDS011;49514;43.538;-5.708;2023-11-21T10:28:02;21.97;;;5.30;;
60233;SDS011;49514;43.538;-5.708;2023-11-21T10:30:33;16.27;;;4.82;;
60233;SDS011;49514;43.538;-5.708;2023-11-21T10:33:04;22.83;;;5.85;;
60233;SDS011;49514;43.538;-5.708;2023-11-21T10:35:47;20.17;;;5.40;;
60233;SDS011;49514;43.538;-5.708;2023-11-21T10:38:20;15.55;;;3.28;;
60233;SDS011;49514;43.538;-5.708;2023-11-21T10:40:50;15.13;;;2.95;;
60233;SDS011;49514;43.538;-5.708;2023-11-21T10:43:17;11.07;;;2.33;;
60233;SDS011;49514;43.538;-5.708;2023-11-21T10:45:44;14.60;;;2.30;;
60233;SDS011;49514;43.538;-5.708;2023-11-21T10:48:14;11.93;;;2.70;;
60233;SDS011;49514;43.538;-5.708;2023-11-21T10:50:42;9.73;;;2.00;;
60233;SDS011;49514;43.538;-5.708;2023-11-21T10:53:09;9.20;;;2.13;;
60233;SDS011;49514;43.538;-5.708;2023-11-21T10:55:38;11.77;;;2.10;;
60233;SDS011;49514;43.538;-5.708;2023-11-21T10:58:05;11.32;;;1.90;;
60233;SDS011;49514;43.538;-5.708;2023-11-21T11:00:33;13.93;;;2.30;;
60233;SDS011;49514;43.538;-5.708;2023-11-21T11:03:00;14.45;;;2.83;;
60233;SDS011;49514;43.538;-5.708;2023-11-21T11:05:28;15.13;;;2.85;;
60233;SDS011;49514;43.538;-5.708;2023-11-21T11:07:58;10.70;;;2.55;;
60233;SDS011;49514;43.538;-5.708;2023-11-21T11:10:29;12.00;;;2.30;;
60233;SDS011;49514;43.538;-5.708;2023-11-21T11:12:56;12.07;;;2.38;;
60233;SDS011;49514;43.538;-5.708;2023-11-21T11:15:24;12.20;;;2.20;;
60233;SDS011;49514;43.538;-5.708;2023-11-21T11:17:52;12.52;;;2.50;;
60233;SDS011;49514;43.538;-5.708;2023-11-21T11:20:23;9.20;;;1.92;;
60233;SDS011;49514;43.538;-5.708;2023-11-21T11:34:10;8.18;;;1.38;;
60233;SDS011;49514;43.538;-5.708;2023-11-21T11:37:01;8.80;;;1.80;;
60233;SDS011;49514;43.538;-5.708;2023-11-21T11:39:41;8.53;;;1.53;;
60233;SDS011;49514;43.538;-5.708;2023-11-21T11:42:13;7.85;;;1.65;;
60233;SDS011;49514;43.538;-5.708;2023-11-21T11:47:15;7.95;;;1.50;;
60233;SDS011;49514;43.538;-5.708;2023-11-21T11:55:06;8.90;;;1.40;;
60233;SDS011;49514;43.538;-5.708;2023-11-21T11:57:38;7.03;;;1.33;;
60233;SDS011;49514;43.538;-5.708;2023-11-21T12:02:42;6.03;;;1.10;;
60233;SDS011;49514;43.538;-5.708;2023-11-21T12:05:11;5.77;;;1.33;;
60233;SDS011;49514;43.538;-5.708;2023-11-21T12:07:50;5.00;;;1.30;;
60233;SDS011;49514;43.538;-5.708;2023-11-21T12:10:21;8.07;;;1.48;;
60233;SDS011;49514;43.538;-5.708;2023-11-21T12:15:24;8.40;;;1.50;;
60233;SDS011;49514;43.538;-5.708;2023-11-21T12:17:51;10.48;;;1.70;;
60233;SDS011;49514;43.538;-5.708;2023-11-21T12:20:19;8.48;;;2.00;;
60233;SDS011;49514;43.538;-5.708;2023-11-21T12:22:47;8.45;;;1.80;;
60233;SDS011;49514;43.538;-5.708;2023-11-21T12:27:46;16.87;;;2.90;;
60233;SDS011;49514;43.538;-5.708;2023-11-21T12:30:15;8.30;;;2.05;;
60233;SDS011;49514;43.538;-5.708;2023-11-21T12:32:43;10.43;;;2.13;;
60233;SDS011;49514;43.538;-5.708;2023-11-21T12:35:14;11.32;;;2.28;;
60233;SDS011;49514;43.538;-5.708;2023-11-21T12:37:42;12.90;;;2.37;;
60233;SDS011;49514;43.538;-5.708;2023-11-21T12:40:09;9.77;;;2.27;;
60233;SDS011;49514;43.538;-5.708;2023-11-21T12:42:41;7.05;;;1.42;;
60233;SDS011;49514;43.538;-5.708;2023-11-21T12:47:43;6.80;;;1.40;;
60233;SDS011;49514;43.538;-5.708;2023-11-21T12:50:13;6.47;;;1.50;;
60233;SDS011;49514;43.538;-5.708;2023-11-21T12:52:41;8.80;;;1.40;;
60233;SDS011;49514;43.538;-5.708;2023-11-21T12:55:15;7.13;;;1.58;;
60233;SDS011;49514;43.538;-5.708;2023-11-21T12:57:48;9.25;;;1.60;;
60233;SDS011;49514;43.538;-5.708;2023-11-21T13:00:22;7.82;;;1.73;;
60233;SDS011;49514;43.538;-5.708;2023-11-21T13:02:56;9.13;;;1.65;;
60233;SDS011;49514;43.538;-5.708;2023-11-21T13:05:27;7.73;;;1.70;;
60233;SDS011;49514;43.538;-5.708;2023-11-21T13:08:01;8.32;;;1.83;;
60233;SDS011;49514;43.538;-5.708;2023-11-21T13:10:30;9.67;;;2.07;;
60233;SDS011;49514;43.538;-5.708;2023-11-21T13:12:58;8.43;;;1.90;;
60233;SDS011;49514;43.538;-5.708;2023-11-21T13:15:35;9.70;;;2.20;;
60233;SDS011;49514;43.538;-5.708;2023-11-21T13:18:13;9.55;;;1.67;;
60233;SDS011;49514;43.538;-5.708;2023-11-21T13:20:40;7.10;;;1.40;;
60233;SDS011;49514;43.538;-5.708;2023-11-21T13:23:07;9.32;;;1.52;;
60233;SDS011;49514;43.538;-5.708;2023-11-21T13:25:38;8.05;;;2.70;;
60233;SDS011;49514;43.538;-5.708;2023-11-21T13:28:07;8.97;;;1.60;;
60233;SDS011;49514;43.538;-5.708;2023-11-21T13:30:35;6.07;;;2.27;;
60233;SDS011;49514;43.538;-5.708;2023-11-21T13:33:02;8.20;;;2.00;;
60233;SDS011;49514;43.538;-5.708;2023-11-21T13:35:34;8.30;;;2.25;;
60233;SDS011;49514;43.538;-5.708;2023-11-21T13:38:10;7.43;;;2.20;;
60233;SDS011;49514;43.538;-5.708;2023-11-21T13:40:40;7.77;;;1.87;;
60233;SDS011;49514;43.538;-5.708;2023-11-21T13:43:13;11.43;;;2.50;;
60233;SDS011;49514;43.538;-5.708;2023-11-21T13:45:40;10.23;;;1.90;;
60233;SDS011;49514;43.538;-5.708;2023-11-21T13:48:08;7.57;;;1.70;;
60233;SDS011;49514;43.538;-5.708;2023-11-21T13:50:37;12.18;;;2.28;;
60233;SDS011;49514;43.538;-5.708;2023-11-21T13:53:04;11.57;;;2.47;;
60233;SDS011;49514;43.538;-5.708;2023-11-21T13:55:42;12.55;;;2.95;;
60233;SDS011;49514;43.538;-5.708;2023-11-21T13:58:10;12.23;;;2.28;;
60233;SDS011;49514;43.538;-5.708;2023-11-21T14:00:43;11.60;;;2.50;;
60233;SDS011;49514;43.538;-5.708;2023-11-21T14:03:18;11.32;;;2.20;;
60233;SDS011;49514;43.538;-5.708;2023-11-21T14:05:48;12.18;;;2.33;;
60233;SDS011;49514;43.538;-5.708;2023-11-21T14:08:20;13.30;;;2.08;;
60233;SDS011;49514;43.538;-5.708;2023-11-21T14:10:50;8.40;;;1.87;;
60233;SDS011;49514;43.538;-5.708;2023-11-21T14:13:21;5.97;;;1.58;;
60233;SDS011;49514;43.538;-5.708;2023-11-21T14:15:49;7.63;;;1.63;;
60233;SDS011;49514;43.538;-5.708;2023-11-21T14:18:27;5.57;;;1.38;;
60233;SDS011;49514;43.538;-5.708;2023-11-21T14:21:04;6.93;;;1.70;;
60233;SDS011;49514;43.538;-5.708;2023-11-21T14:23:37;6.68;;;1.40;;
60233;SDS011;49514;43.538;-5.708;2023-11-21T14:26:05;5.87;;;1.53;;
60233;SDS011;49514;43.538;-5.708;2023-11-21T14:28:33;8.18;;;1.45;;
60233;SDS011;49514;43.538;-5.708;2023-11-21T14:31:01;7.07;;;2.00;;
60233;SDS011;49514;43.538;-5.708;2023-11-21T14:33:29;5.47;;;1.50;;
60233;SDS011;49514;43.538;-5.708;2023-11-21T14:35:56;7.27;;;1.87;;
60233;SDS011;49514;43.538;-5.708;2023-11-21T14:38:23;10.68;;;2.10;;
60233;SDS011;49514;43.538;-5.708;2023-11-21T14:40:50;11.37;;;2.27;;
60233;SDS011;49514;43.538;-5.708;2023-11-21T14:43:16;8.15;;;1.80;;
60233;SDS011;49514;43.538;-5.708;2023-11-21T14:45:44;7.25;;;1.90;;
60233;SDS011;49514;43.538;-5.708;2023-11-21T14:48:11;14.85;;;2.60;;
60233;SDS011;49514;43.538;-5.708;2023-11-21T14:50:57;10.55;;;2.33;;
60233;SDS011;49514;43.538;-5.708;2023-11-21T14:53:29;9.82;;;2.17;;
60233;SDS011;49514;43.538;-5.708;2023-11-21T14:56:09;13.45;;;3.03;;
60233;SDS011;49514;43.538;-5.708;2023-11-21T14:58:36;10.30;;;2.58;;
60233;SDS011;49514;43.538;-5.708;2023-11-21T15:01:04;10.93;;;2.33;;
60233;SDS011;49514;43.538;-5.708;2023-11-21T15:03:34;9.13;;;2.00;;
60233;SDS011;49514;43.538;-5.708;2023-11-21T15:06:09;9.00;;;2.10;;